Time;durP1;ratioP1;P1;durP2;ratioP2;P2;SDS_P1;SDS_P2;PMS_P1;PMS_P2;Temp;Humidity;BMP_temperature;BMP_pressure;BME280_temperature;BME280_humidity;BME280_pressure;Samples;Min_cycle;Max_cycle;Signal;HPM_P1;HPM_P2
2021/12/18 00:02:01;;;;;;;4.25;1.75;;;8.60;99.90;;;;;;5092571;28;20076;-75
2021/12/18 00:04:27;;;;;;;5.70;2.30;;;8.60;99.90;;;;;;5093835;28;20047;-73
2021/12/18 00:06:53;;;;;;;5.28;2.05;;;8.30;99.90;;;;;;5108695;28;20150;-75
2021/12/18 00:09:18;;;;;;;7.43;1.95;;;7.80;99.90;;;;;;5110787;28;20125;-75
2021/12/18 00:11:45;;;;;;;8.10;1.75;;;8.70;99.90;;;;;;5063731;28;20048;-75
2021/12/18 00:14:11;;;;;;;6.43;1.30;;;7.60;99.90;;;;;;5106013;28;20055;-74
2021/12/18 00:16:37;;;;;;;5.13;1.05;;;8.40;99.90;;;;;;5110643;28;20036;-74
2021/12/18 00:19:03;;;;;;;3.65;1.50;;;8.50;99.90;;;;;;5091766;28;20044;-75
2021/12/18 00:21:28;;;;;;;7.32;1.83;;;8.10;99.90;;;;;;5110612;28;20040;-75
2021/12/18 00:23:54;;;;;;;5.85;1.77;;;7.40;99.90;;;;;;5108510;28;20084;-74
2021/12/18 00:26:20;;;;;;;8.68;1.80;;;8.40;99.90;;;;;;5111538;28;20035;-74
2021/12/18 00:28:47;;;;;;;6.13;2.05;;;7.30;99.90;;;;;;5089799;28;20105;-75
2021/12/18 00:31:13;;;;;;;4.82;1.80;;;8.40;99.90;;;;;;5109367;28;20035;-75
2021/12/18 00:33:39;;;;;;;6.45;2.05;;;8.30;99.90;;;;;;5109589;28;20141;-74
2021/12/18 00:36:06;;;;;;;6.15;2.40;;;8.00;99.90;;;;;;5090852;28;20074;-75
2021/12/18 00:38:32;;;;;;;5.95;2.03;;;8.70;99.90;;;;;;5094676;28;20047;-75
2021/12/18 00:43:40;;;;;;;5.20;1.80;;;7.90;99.90;;;;;;5104086;28;20953;-74
2021/12/18 00:46:06;;;;;;;6.40;1.75;;;8.50;99.90;;;;;;5109841;28;20063;-76
2021/12/18 00:48:32;;;;;;;7.18;1.70;;;8.50;99.90;;;;;;5111392;28;20529;-74
2021/12/18 00:50:57;;;;;;;5.97;1.83;;;8.40;99.90;;;;;;5110207;28;20039;-76
2021/12/18 00:53:23;;;;;;;7.40;1.50;;;8.50;99.90;;;;;;5091154;28;20101;-74
2021/12/18 00:55:51;;;;;;;5.03;1.40;;;7.60;99.90;;;;;;5108943;28;20042;-75
2021/12/18 00:58:17;;;;;;;4.10;1.67;;;8.40;99.90;;;;;;5110035;28;20483;-75
2021/12/18 01:00:43;;;;;;;4.63;1.60;;;8.10;99.90;;;;;;5109007;28;20035;-74
2021/12/18 01:03:17;;;;;;;3.78;1.67;;;8.40;99.90;;;;;;5109667;28;20036;-75
2021/12/18 01:05:45;;;;;;;6.13;2.03;;;7.80;99.90;;;;;;5108646;28;20093;-73
2021/12/18 01:08:11;;;;;;;3.78;1.83;;;8.40;99.90;;;;;;5107444;28;20047;-75
2021/12/18 01:13:20;;;;;;;20.15;2.03;;;8.20;99.90;;;;;;5109382;28;20100;-73
2021/12/18 01:15:53;;;;;;;5.88;1.40;;;8.40;99.90;;;;;;5108157;28;20051;-75
2021/12/18 01:23:47;;;;;;;3.45;1.40;;;7.50;99.90;;;;;;5101721;28;20047;-74
2021/12/18 01:26:13;;;;;;;4.07;2.10;;;8.30;99.90;;;;;;5106471;28;20031;-74
2021/12/18 01:28:39;;;;;;;6.10;1.40;;;8.30;99.90;;;;;;5109412;28;20962;-76
2021/12/18 01:31:05;;;;;;;4.38;1.45;;;7.10;99.90;;;;;;5109509;28;20706;-77
2021/12/18 01:33:32;;;;;;;8.68;2.30;;;7.90;99.90;;;;;;5089909;28;20676;-76
2021/12/18 01:36:00;;;;;;;13.93;2.03;;;8.20;99.90;;;;;;5102673;28;20056;-76
2021/12/18 01:38:28;;;;;;;11.75;2.63;;;8.30;99.90;;;;;;5093474;28;20123;-75
2021/12/18 01:40:54;;;;;;;14.00;2.90;;;8.10;99.90;;;;;;5108768;28;20468;-76
2021/12/18 01:46:43;;;;;;;24.38;3.17;;;7.20;99.90;;;;;;5029879;28;20484;-76
2021/12/18 01:54:38;;;;;;;7.70;2.53;;;8.20;99.90;;;;;;5091427;28;20058;-74
2021/12/18 01:57:05;;;;;;;4.82;1.80;;;7.70;99.90;;;;;;5089806;28;20056;-76
2021/12/18 01:59:47;;;;;;;5.82;2.67;;;7.10;99.90;;;;;;5105815;28;20077;-75
2021/12/18 02:02:14;;;;;;;5.65;2.28;;;7.30;99.90;;;;;;5106557;28;20039;-73
2021/12/18 02:04:41;;;;;;;8.80;2.60;;;7.90;99.90;;;;;;5104733;28;20059;-74
2021/12/18 02:07:07;;;;;;;5.10;2.05;;;7.20;99.90;;;;;;5106631;28;20110;-74
2021/12/18 02:12:18;;;;;;;6.15;1.88;;;8.40;99.90;;;;;;5106746;28;20075;-76
2021/12/18 02:20:39;;;;;;;4.97;2.03;;;7.60;99.90;;;;;;5102294;28;20422;-75
2021/12/18 02:23:05;;;;;;;5.72;1.60;;;7.20;99.90;;;;;;5103331;28;20050;-75
2021/12/18 02:25:34;;;;;;;5.30;2.17;;;7.50;99.90;;;;;;5107846;28;21811;-74
2021/12/18 02:28:01;;;;;;;5.20;1.52;;;7.60;99.90;;;;;;5103734;28;20058;-75
2021/12/18 02:30:27;;;;;;;7.47;2.70;;;8.40;99.90;;;;;;5091438;28;20130;-75
2021/12/18 02:32:53;;;;;;;4.68;1.77;;;8.50;99.90;;;;;;5108414;28;20422;-76
2021/12/18 02:35:28;;;;;;;8.35;1.98;;;7.80;99.90;;;;;;5107340;28;20561;-77
2021/12/18 02:38:09;;;;;;;;;;;7.60;99.90;;;;;;5099729;28;20430;-73
2021/12/18 02:43:26;;;;;;;9.55;1.80;;;8.10;99.90;;;;;;5100199;28;20138;-72
2021/12/18 02:45:55;;;;;;;8.90;1.90;;;7.90;99.90;;;;;;5090346;28;20125;-73
2021/12/18 02:48:22;;;;;;;6.18;1.45;;;7.30;99.90;;;;;;5105786;28;20119;-74
2021/12/18 02:50:48;;;;;;;9.43;1.90;;;8.20;99.90;;;;;;5107624;28;20481;-72
2021/12/18 02:53:13;;;;;;;10.20;1.80;;;8.50;99.90;;;;;;5106304;28;20044;-72
2021/12/18 02:55:39;;;;;;;9.48;1.50;;;7.90;99.90;;;;;;5097747;28;21475;-72
2021/12/18 02:58:05;;;;;;;10.43;2.30;;;8.40;99.90;;;;;;5105568;28;20059;-71
2021/12/18 03:00:31;;;;;;;5.95;1.63;;;7.80;99.90;;;;;;5097175;28;20078;-71
2021/12/18 03:02:57;;;;;;;7.25;1.75;;;8.60;99.90;;;;;;5114627;28;20039;-72
2021/12/18 03:05:33;;;;;;;8.43;1.50;;;8.60;99.90;;;;;;5114427;28;20036;-71
2021/12/18 03:08:09;;;;;;;8.43;1.80;;;7.50;99.90;;;;;;5114089;28;20039;-72
2021/12/18 03:19:44;;;;;;;9.03;1.40;;;7.70;99.90;;;;;;5112705;28;20043;-73
2021/12/18 03:24:42;;;;;;;7.70;2.08;;;7.70;99.90;;;;;;5114153;28;20048;-73
2021/12/18 03:27:08;;;;;;;7.43;1.90;;;8.40;99.90;;;;;;5098557;28;20482;-71
2021/12/18 03:29:34;;;;;;;5.78;1.52;;;8.20;99.90;;;;;;5113601;28;20126;-73
2021/12/18 03:32:00;;;;;;;5.40;1.45;;;7.50;99.90;;;;;;5107552;28;20082;-71
2021/12/18 03:34:26;;;;;;;8.93;1.52;;;7.90;99.90;;;;;;5103418;28;20120;-73
2021/12/18 03:36:52;;;;;;;7.18;1.33;;;7.80;99.90;;;;;;5107074;28;20100;-72
2021/12/18 03:39:18;;;;;;;2.95;1.48;;;8.50;99.90;;;;;;5112726;28;20131;-74
2021/12/18 03:41:44;;;;;;;3.17;1.13;;;7.30;99.90;;;;;;5113163;28;20050;-74
2021/12/18 03:44:10;;;;;;;3.33;1.10;;;7.90;99.90;;;;;;5111626;28;20343;-73
2021/12/18 03:46:36;;;;;;;2.58;1.30;;;8.50;99.90;;;;;;5110095;28;20818;-72
2021/12/18 03:49:02;;;;;;;2.65;1.20;;;8.60;99.90;;;;;;5111909;28;20064;-72
2021/12/18 03:51:27;;;;;;;4.40;1.17;;;8.40;99.90;;;;;;5089601;28;20047;-72
2021/12/18 03:53:53;;;;;;;2.78;1.23;;;8.10;99.90;;;;;;5114851;28;20394;-72
2021/12/18 03:56:19;;;;;;;4.70;1.13;;;8.60;99.90;;;;;;5100132;28;20118;-72
2021/12/18 03:58:45;;;;;;;4.72;1.50;;;8.00;99.90;;;;;;5076947;28;20048;-72
2021/12/18 04:01:12;;;;;;;5.88;1.60;;;8.10;99.90;;;;;;5108992;28;20066;-72
2021/12/18 04:03:38;;;;;;;4.80;1.58;;;8.00;99.90;;;;;;5112326;28;20080;-72
2021/12/18 04:06:09;;;;;;;3.88;1.42;;;8.40;99.90;;;;;;5112185;28;20081;-73
2021/12/18 04:08:35;;;;;;;6.90;1.52;;;7.40;99.90;;;;;;5109630;28;20047;-73
2021/12/18 04:11:01;;;;;;;4.75;1.58;;;7.80;99.90;;;;;;5111008;28;20399;-72
2021/12/18 04:13:26;;;;;;;5.95;1.70;;;7.80;99.90;;;;;;5108168;28;20043;-74
2021/12/18 04:15:52;;;;;;;6.88;1.85;;;7.40;99.90;;;;;;5109778;28;20466;-73
2021/12/18 04:18:18;;;;;;;11.85;2.88;;;7.50;99.90;;;;;;5109542;28;20055;-72
2021/12/18 04:20:43;;;;;;;20.10;3.28;;;7.60;99.90;;;;;;5105469;28;20579;-72
2021/12/18 04:23:09;;;;;;;8.45;2.08;;;7.90;99.90;;;;;;5105188;28;20067;-74
2021/12/18 04:25:35;;;;;;;7.20;2.38;;;7.60;99.90;;;;;;5105385;28;20036;-72
2021/12/18 04:28:01;;;;;;;7.97;2.58;;;8.80;99.90;;;;;;5103997;28;20054;-72
2021/12/18 04:30:27;;;;;;;9.25;2.40;;;8.10;99.90;;;;;;5109887;28;20031;-71
2021/12/18 04:32:52;;;;;;;7.07;2.58;;;8.30;99.90;;;;;;5110995;28;20487;-72
2021/12/18 04:35:18;;;;;;;5.13;2.28;;;7.70;99.90;;;;;;5106407;28;20384;-73
2021/12/18 04:37:44;;;;;;;10.30;2.92;;;7.50;99.90;;;;;;5108796;28;20048;-72
2021/12/18 04:40:10;;;;;;;10.63;2.30;;;8.70;99.90;;;;;;5108476;28;20609;-73
2021/12/18 04:42:36;;;;;;;7.30;2.30;;;8.60;99.90;;;;;;5106383;28;20372;-72
2021/12/18 04:45:03;;;;;;;10.70;2.22;;;8.30;99.90;;;;;;5106708;28;20047;-73
2021/12/18 04:47:29;;;;;;;9.73;2.80;;;8.60;99.90;;;;;;5107522;28;20052;-73
2021/12/18 04:49:55;;;;;;;11.70;3.05;;;9.00;99.90;;;;;;5111323;28;20380;-71
2021/12/18 04:52:22;;;;;;;7.80;2.30;;;8.70;99.90;;;;;;5109875;28;20151;-73
2021/12/18 04:54:48;;;;;;;9.95;2.80;;;8.80;99.90;;;;;;5115824;28;20048;-71
2021/12/18 04:57:14;;;;;;;8.13;2.50;;;7.70;99.90;;;;;;5114539;28;20056;-72
2021/12/18 04:59:43;;;;;;;7.13;2.25;;;8.90;99.90;;;;;;5104386;28;20645;-72
2021/12/18 05:02:13;;;;;;;6.38;2.35;;;9.10;99.90;;;;;;5084178;28;20698;-70
2021/12/18 05:04:38;;;;;;;9.85;2.80;;;8.90;99.90;;;;;;5101774;28;20104;-72
2021/12/18 05:07:04;;;;;;;7.45;3.08;;;7.80;99.90;;;;;;5105244;28;21598;-71
2021/12/18 05:09:30;;;;;;;7.30;2.70;;;7.70;99.90;;;;;;5089189;28;20495;-73
2021/12/18 05:11:58;;;;;;;9.48;3.10;;;8.90;99.90;;;;;;5107824;28;20122;-73
2021/12/18 05:14:24;;;;;;;8.25;2.90;;;8.80;99.90;;;;;;5084528;28;20039;-74
2021/12/18 05:16:49;;;;;;;12.75;3.72;;;8.90;99.90;;;;;;5104849;28;20054;-74
2021/12/18 05:19:15;;;;;;;9.77;3.00;;;7.90;99.90;;;;;;5103881;28;20035;-73
2021/12/18 05:21:41;;;;;;;13.00;3.53;;;8.70;99.90;;;;;;5102808;28;20039;-73
2021/12/18 05:24:07;;;;;;;9.75;3.40;;;8.50;99.90;;;;;;5100757;28;20059;-73
2021/12/18 05:26:32;;;;;;;16.67;4.00;;;8.30;99.90;;;;;;5087884;28;20084;-73
2021/12/18 05:28:58;;;;;;;11.07;3.80;;;9.20;99.90;;;;;;5106235;28;20479;-73
2021/12/18 05:31:24;;;;;;;7.38;3.78;;;8.00;99.90;;;;;;5107292;28;20050;-73
2021/12/18 05:33:54;;;;;;;11.98;4.20;;;8.30;99.90;;;;;;5104269;28;20067;-73
2021/12/18 05:36:35;;;;;;;14.55;4.15;;;8.20;99.90;;;;;;5087522;28;20058;-72
2021/12/18 05:39:07;;;;;;;15.27;4.45;;;8.50;99.90;;;;;;5104562;28;20075;-72
2021/12/18 05:41:35;;;;;;;15.80;5.35;;;8.00;99.90;;;;;;5106659;28;20237;-72
2021/12/18 05:44:01;;;;;;;12.13;4.57;;;7.90;99.90;;;;;;5090579;28;20039;-73
2021/12/18 05:46:27;;;;;;;13.93;4.50;;;9.20;99.90;;;;;;5084018;28;20499;-73
2021/12/18 05:48:53;;;;;;;11.70;4.30;;;8.70;99.90;;;;;;5099175;28;20065;-73
2021/12/18 05:51:18;;;;;;;10.95;3.90;;;8.00;99.90;;;;;;5104977;28;20118;-73
2021/12/18 05:53:44;;;;;;;14.50;4.47;;;8.40;99.90;;;;;;5103488;28;20047;-72
2021/12/18 05:56:10;;;;;;;11.05;4.38;;;9.00;99.90;;;;;;5105143;28;20040;-72
2021/12/18 05:58:36;;;;;;;13.00;4.70;;;8.00;99.90;;;;;;5110307;28;20070;-72
2021/12/18 06:01:02;;;;;;;11.80;4.38;;;9.40;99.90;;;;;;5088880;28;20047;-72
2021/12/18 06:03:28;;;;;;;10.77;4.20;;;9.40;99.90;;;;;;5105471;28;20088;-72
2021/12/18 06:05:53;;;;;;;10.43;4.45;;;8.20;99.90;;;;;;5105047;28;20503;-73
2021/12/18 06:08:19;;;;;;;14.80;4.80;;;9.00;99.90;;;;;;5099615;28;20085;-73
2021/12/18 06:10:45;;;;;;;11.75;4.95;;;8.80;99.90;;;;;;5101143;28;20050;-73
2021/12/18 06:13:11;;;;;;;15.88;4.50;;;8.50;99.90;;;;;;5106293;28;20116;-73
2021/12/18 06:15:36;;;;;;;14.07;5.15;;;8.10;99.90;;;;;;5104307;28;20452;-73
2021/12/18 06:18:02;;;;;;;12.90;5.10;;;9.50;99.90;;;;;;5104896;28;20035;-73
2021/12/18 06:20:29;;;;;;;14.95;4.30;;;8.40;99.90;;;;;;5089066;28;20070;-73
2021/12/18 06:22:55;;;;;;;12.25;4.25;;;9.70;99.90;;;;;;5106668;28;20197;-74
2021/12/18 06:25:21;;;;;;;9.30;4.03;;;8.30;99.90;;;;;;5104166;28;20126;-74
2021/12/18 06:27:47;;;;;;;10.48;4.70;;;8.20;99.90;;;;;;5105553;28;20047;-72
2021/12/18 06:30:16;;;;;;;12.68;4.35;;;8.70;99.90;;;;;;5104364;28;20058;-72
2021/12/18 06:32:42;;;;;;;10.98;3.92;;;8.80;99.90;;;;;;5106479;28;20088;-72
2021/12/18 06:35:08;;;;;;;14.93;4.00;;;8.80;99.90;;;;;;5102906;28;20035;-74
2021/12/18 06:37:34;;;;;;;19.75;4.47;;;9.70;99.90;;;;;;5100988;28;20039;-72
2021/12/18 06:40:00;;;;;;;10.57;3.55;;;9.20;99.90;;;;;;5105116;28;20387;-73
2021/12/18 06:42:25;;;;;;;11.90;4.07;;;9.80;99.90;;;;;;5104263;28;20122;-73
2021/12/18 06:44:51;;;;;;;11.02;3.53;;;9.20;99.90;;;;;;5106676;28;20037;-73
2021/12/18 06:47:17;;;;;;;11.82;3.38;;;9.40;99.90;;;;;;5100866;28;20098;-72
2021/12/18 06:49:42;;;;;;;14.20;3.75;;;8.30;99.90;;;;;;5106561;28;20118;-72
2021/12/18 06:52:08;;;;;;;9.63;3.70;;;9.80;99.90;;;;;;5106134;28;20036;-73
2021/12/18 06:54:34;;;;;;;12.75;4.00;;;8.60;99.90;;;;;;5103843;28;20077;-72
2021/12/18 06:57:01;;;;;;;10.65;3.72;;;8.30;99.90;;;;;;5106416;28;20409;-72
2021/12/18 06:59:28;;;;;;;7.80;3.30;;;8.60;99.90;;;;;;5103975;28;20044;-72
2021/12/18 07:01:54;;;;;;;13.50;4.25;;;8.80;99.90;;;;;;5099965;28;20527;-72
2021/12/18 07:04:22;;;;;;;10.95;4.07;;;9.40;99.90;;;;;;5105531;28;20126;-74
2021/12/18 07:06:48;;;;;;;9.75;3.33;;;9.50;99.90;;;;;;5103617;28;20042;-72
2021/12/18 07:09:14;;;;;;;10.70;3.47;;;8.80;99.90;;;;;;5106557;28;20036;-72
2021/12/18 07:11:40;;;;;;;11.57;3.30;;;8.40;99.90;;;;;;5108405;28;20128;-73
2021/12/18 07:14:06;;;;;;;8.70;4.00;;;9.20;99.90;;;;;;5106523;28;20391;-74
2021/12/18 07:16:32;;;;;;;12.15;3.60;;;9.60;99.90;;;;;;5108359;28;20154;-74
2021/12/18 07:18:57;;;;;;;12.85;3.72;;;9.40;99.90;;;;;;5109368;28;20051;-74
2021/12/18 07:21:23;;;;;;;10.13;3.25;;;9.40;99.90;;;;;;5090728;28;20403;-74
2021/12/18 07:23:49;;;;;;;35.63;5.57;;;8.90;99.90;;;;;;5092036;28;20069;-72
2021/12/18 07:26:14;;;;;;;11.18;3.58;;;9.40;99.90;;;;;;5101640;28;20055;-73
2021/12/18 07:28:40;;;;;;;10.68;3.67;;;8.70;99.90;;;;;;5109345;28;20043;-72
2021/12/18 07:31:06;;;;;;;12.63;4.10;;;8.50;99.90;;;;;;5105462;28;20024;-72
2021/12/18 07:33:35;;;;;;;15.90;3.65;;;8.90;99.90;;;;;;5095798;28;20051;-73
2021/12/18 07:36:00;;;;;;;11.32;3.60;;;9.90;99.90;;;;;;5110771;28;20043;-73
2021/12/18 07:38:26;;;;;;;12.02;3.50;;;8.60;99.90;;;;;;5091069;28;20044;-73
2021/12/18 07:40:52;;;;;;;8.60;3.60;;;9.80;99.90;;;;;;5107738;28;20101;-73
2021/12/18 07:43:17;;;;;;;10.82;3.45;;;9.70;99.90;;;;;;5091142;28;20130;-73
2021/12/18 07:45:44;;;;;;;11.13;3.47;;;9.50;99.90;;;;;;5107981;28;20718;-72
2021/12/18 07:48:09;;;;;;;8.63;3.78;;;9.60;99.90;;;;;;5107987;28;20059;-73
2021/12/18 07:50:35;;;;;;;9.63;3.50;;;9.50;99.90;;;;;;5105578;28;20384;-72
2021/12/18 07:53:01;;;;;;;8.43;3.72;;;9.80;99.90;;;;;;5107877;28;20044;-72
2021/12/18 07:55:28;;;;;;;12.88;3.53;;;8.80;99.90;;;;;;5112502;28;20051;-72
2021/12/18 07:57:57;;;;;;;13.30;3.60;;;9.60;99.90;;;;;;5112926;28;20074;-71
2021/12/18 08:00:24;;;;;;;6.60;2.90;;;9.60;99.90;;;;;;5111470;28;20039;-71
2021/12/18 08:02:49;;;;;;;9.93;3.50;;;9.10;99.90;;;;;;5111592;28;20036;-71
2021/12/18 08:05:15;;;;;;;11.63;3.38;;;9.90;99.90;;;;;;5112656;28;20036;-73
2021/12/18 08:07:42;;;;;;;10.35;2.78;;;9.60;99.90;;;;;;5110329;28;20050;-73
2021/12/18 08:10:08;;;;;;;9.93;3.17;;;8.70;99.90;;;;;;5094276;28;20628;-72
2021/12/18 08:12:34;;;;;;;7.10;3.25;;;9.80;99.90;;;;;;5111354;28;20506;-72
2021/12/18 08:15:06;;;;;;;7.80;3.15;;;8.80;99.90;;;;;;5095348;28;20050;-72
2021/12/18 08:17:32;;;;;;;11.15;2.67;;;8.90;99.90;;;;;;5094279;28;20062;-73
2021/12/18 08:19:58;;;;;;;9.75;2.75;;;9.20;99.90;;;;;;5077122;28;20162;-73
2021/12/18 08:22:24;;;;;;;13.18;2.95;;;9.00;99.90;;;;;;5092535;28;20035;-73
2021/12/18 08:24:50;;;;;;;10.02;2.90;;;9.90;99.90;;;;;;5108725;28;20039;-73
2021/12/18 08:27:16;;;;;;;13.27;3.25;;;9.20;99.90;;;;;;5072347;28;20058;-72
2021/12/18 08:29:42;;;;;;;8.45;2.53;;;8.80;99.90;;;;;;5086365;28;20051;-73
2021/12/18 08:32:07;;;;;;;9.75;3.42;;;9.80;99.90;;;;;;5098723;28;20036;-73
2021/12/18 08:34:33;;;;;;;12.10;3.58;;;9.50;99.90;;;;;;5102794;28;20039;-73
2021/12/18 08:36:59;;;;;;;10.32;2.83;;;9.10;99.90;;;;;;5104351;28;20493;-72
2021/12/18 08:39:25;;;;;;;11.68;2.95;;;8.80;99.90;;;;;;5100303;28;20039;-72
2021/12/18 08:41:51;;;;;;;10.40;3.05;;;8.70;99.90;;;;;;5081268;28;20040;-72
2021/12/18 08:44:16;;;;;;;9.70;2.78;;;8.90;99.90;;;;;;5099571;28;20118;-72
2021/12/18 08:46:42;;;;;;;11.45;2.85;;;8.80;99.90;;;;;;5111065;28;20044;-73
2021/12/18 08:49:09;;;;;;;13.25;3.58;;;9.90;99.90;;;;;;5092799;28;20039;-73
2021/12/18 08:51:38;;;;;;;10.05;2.90;;;9.00;99.90;;;;;;5107401;28;20040;-72
2021/12/18 08:54:05;;;;;;;10.68;2.75;;;9.40;99.90;;;;;;5090878;28;20114;-73
2021/12/18 08:56:31;;;;;;;8.13;2.60;;;9.00;99.90;;;;;;5105969;28;20042;-74
2021/12/18 08:58:58;;;;;;;8.88;2.83;;;9.20;99.90;;;;;;5087599;28;20087;-75
2021/12/18 09:01:26;;;;;;;8.48;2.70;;;9.20;99.90;;;;;;5110187;28;20096;-76
2021/12/18 09:03:52;;;;;;;10.73;2.80;;;10.10;99.90;;;;;;5108700;28;20040;-72
2021/12/18 09:06:18;;;;;;;10.23;2.90;;;9.90;99.90;;;;;;5109637;28;20420;-74
2021/12/18 09:08:44;;;;;;;5.38;2.50;;;9.70;99.90;;;;;;5092031;28;20057;-75
2021/12/18 09:11:11;;;;;;;10.77;3.25;;;10.10;99.90;;;;;;5084754;28;20134;-75
2021/12/18 09:13:37;;;;;;;11.60;2.97;;;9.40;99.90;;;;;;5098392;28;20128;-74
2021/12/18 09:16:03;;;;;;;10.40;2.60;;;9.90;99.90;;;;;;5100834;28;20047;-74
2021/12/18 09:18:28;;;;;;;11.35;2.50;;;9.30;99.90;;;;;;5099388;28;20075;-76
2021/12/18 09:20:54;;;;;;;8.70;2.85;;;9.20;99.90;;;;;;5099639;28;20127;-74
2021/12/18 09:23:21;;;;;;;8.55;2.80;;;9.80;99.90;;;;;;5084851;28;20092;-74
2021/12/18 09:25:47;;;;;;;9.73;3.72;;;9.90;99.90;;;;;;5100833;28;20042;-76
2021/12/18 09:28:13;;;;;;;10.65;2.95;;;9.80;99.90;;;;;;5086321;28;20043;-75
2021/12/18 09:30:40;;;;;;;6.88;2.45;;;9.40;99.90;;;;;;5099299;28;20139;-73
2021/12/18 09:33:07;;;;;;;6.80;2.65;;;9.80;99.90;;;;;;5102660;28;20031;-73
2021/12/18 09:35:33;;;;;;;7.30;2.40;;;9.20;99.90;;;;;;5083647;28;20078;-74
2021/12/18 09:37:59;;;;;;;9.18;2.88;;;9.60;99.90;;;;;;5069112;28;20050;-73
2021/12/18 09:40:25;;;;;;;8.70;2.40;;;9.30;99.90;;;;;;5100722;28;20035;-73
2021/12/18 09:42:51;;;;;;;6.63;2.80;;;9.50;99.90;;;;;;5082826;28;20149;-73
2021/12/18 09:45:17;;;;;;;9.88;2.60;;;9.90;99.90;;;;;;5102178;28;20127;-72
2021/12/18 09:48:13;;;;;;;11.57;2.78;;;10.10;99.90;;;;;;5084555;27;20410;-73
2021/12/18 09:50:42;;;;;;;9.13;2.90;;;9.50;99.90;;;;;;5071307;28;20087;-72
2021/12/18 09:53:08;;;;;;;4.95;2.55;;;9.30;99.90;;;;;;5092806;28;20082;-74
2021/12/18 09:55:33;;;;;;;5.90;2.90;;;9.20;99.90;;;;;;5087535;28;20154;-73
2021/12/18 09:57:59;;;;;;;8.13;3.40;;;9.80;99.90;;;;;;5074260;28;20404;-74
2021/12/18 10:00:25;;;;;;;11.00;3.83;;;10.00;99.90;;;;;;5100244;28;20044;-74
2021/12/18 10:02:52;;;;;;;7.45;3.10;;;9.70;99.90;;;;;;5076182;28;20048;-75
2021/12/18 10:05:26;;;;;;;10.13;3.40;;;9.30;99.90;;;;;;5100680;28;20047;-76
2021/12/18 10:08:11;;;;;;;8.75;3.53;;;9.40;99.90;;;;;;5100963;28;20073;-73
2021/12/18 10:10:38;;;;;;;11.20;3.03;;;9.50;99.90;;;;;;5102799;28;20047;-74
2021/12/18 10:13:09;;;;;;;7.35;2.95;;;10.10;99.90;;;;;;5102904;28;20043;-80
2021/12/18 10:15:36;;;;;;;9.32;3.10;;;9.30;99.90;;;;;;5101546;28;20043;-74
2021/12/18 10:18:10;;;;;;;13.25;3.63;;;10.20;99.90;;;;;;5100519;28;20043;-75
2021/12/18 10:20:37;;;;;;;7.80;3.30;;;9.40;99.90;;;;;;5098807;28;20039;-74
2021/12/18 10:23:05;;;;;;;10.48;4.43;;;9.40;99.90;;;;;;5103444;28;20093;-75
2021/12/18 10:25:42;;;;;;;6.65;3.45;;;10.10;99.90;;;;;;5084419;28;20539;-73
2021/12/18 10:28:21;;;;;;;12.50;4.00;;;9.40;99.90;;;;;;5090338;28;20502;-74
2021/12/18 10:30:53;;;;;;;10.68;3.22;;;9.40;99.90;;;;;;5082625;28;20077;-76
2021/12/18 10:33:27;;;;;;;7.95;3.65;;;10.30;99.90;;;;;;5101289;28;20841;-75
2021/12/18 10:35:56;;;;;;;9.23;3.50;;;10.10;99.90;;;;;;5094716;28;20078;-74
2021/12/18 10:38:43;;;;;;;7.93;3.38;;;10.10;99.90;;;;;;5102094;28;20039;-74
2021/12/18 10:41:18;;;;;;;9.35;3.47;;;10.10;99.90;;;;;;5101548;28;20371;-75
2021/12/18 10:43:53;;;;;;;;;;;10.00;99.90;;;;;;5085476;28;20153;-74
2021/12/18 10:46:22;;;;;;;6.63;3.03;;;9.90;99.90;;;;;;5101843;28;20365;-74
2021/12/18 10:49:01;;;;;;;7.18;2.97;;;10.20;99.90;;;;;;5100640;28;20040;-70
2021/12/18 10:51:30;;;;;;;10.68;3.78;;;10.30;99.90;;;;;;5100464;28;20225;-79
2021/12/18 10:54:01;;;;;;;8.65;3.17;;;10.20;99.90;;;;;;5101317;28;20592;-75
2021/12/18 10:56:55;;;;;;;6.85;3.53;;;10.10;99.90;;;;;;5100986;28;20059;-76
2021/12/18 10:59:25;;;;;;;6.55;2.95;;;10.20;99.90;;;;;;5070515;28;20051;-78
2021/12/18 11:02:19;;;;;;;13.10;3.58;;;9.60;99.90;;;;;;5095725;28;20495;-74
2021/12/18 11:04:45;;;;;;;10.73;3.30;;;10.10;99.90;;;;;;5100356;28;20039;-74
2021/12/18 11:07:20;;;;;;;9.00;2.45;;;9.60;99.90;;;;;;5083336;28;20043;-75
2021/12/18 11:10:00;;;;;;;7.47;2.78;;;10.00;99.90;;;;;;5102777;28;20096;-78
2021/12/18 11:15:10;;;;;;;6.00;2.88;;;9.60;99.90;;;;;;5086148;28;20047;-77
2021/12/18 11:17:37;;;;;;;8.05;2.55;;;10.20;99.90;;;;;;5101778;28;20049;-76
2021/12/18 11:20:03;;;;;;;6.47;2.67;;;9.70;99.90;;;;;;5084578;28;20145;-73
2021/12/18 11:22:29;;;;;;;6.30;2.28;;;10.10;99.90;;;;;;5101885;28;20044;-77
2021/12/18 11:25:01;;;;;;;8.98;3.20;;;10.10;99.90;;;;;;5087442;28;20042;-75
2021/12/18 11:27:31;;;;;;;7.72;3.58;;;9.80;99.90;;;;;;5103175;28;20112;-77
2021/12/18 11:30:03;;;;;;;9.05;3.45;;;9.60;99.90;;;;;;5097721;28;20051;-77
2021/12/18 11:32:33;;;;;;;10.23;4.30;;;9.80;99.90;;;;;;5095292;28;20051;-76
2021/12/18 11:35:03;;;;;;;8.77;3.85;;;10.00;99.90;;;;;;5103936;27;20055;-75
2021/12/18 11:37:47;;;;;;;9.85;3.75;;;10.10;99.90;;;;;;5093330;28;20089;-74
2021/12/18 11:40:18;;;;;;;6.68;2.90;;;9.70;99.90;;;;;;5086886;28;20040;-74
2021/12/18 11:42:44;;;;;;;7.40;2.90;;;9.70;99.90;;;;;;5101633;28;20047;-76
2021/12/18 11:45:10;;;;;;;6.07;2.92;;;10.00;99.90;;;;;;5103270;28;20044;-78
2021/12/18 11:47:36;;;;;;;8.52;2.30;;;10.00;99.90;;;;;;5105575;28;20043;-74
2021/12/18 11:50:20;;;;;;;8.48;2.30;;;9.70;99.90;;;;;;5092030;28;20399;-75
2021/12/18 11:53:06;;;;;;;4.95;2.25;;;10.00;99.90;;;;;;5098494;28;20047;-76
2021/12/18 11:55:50;;;;;;;8.10;2.42;;;9.80;99.90;;;;;;5106469;28;20094;-74
2021/12/18 11:58:19;;;;;;;9.25;2.75;;;9.90;99.90;;;;;;5123345;27;20055;-73
2021/12/18 12:00:51;;;;;;;5.82;2.53;;;10.00;99.90;;;;;;5106986;28;20859;-77
2021/12/18 12:03:38;;;;;;;5.82;2.42;;;10.00;99.90;;;;;;5105650;28;20036;-78
2021/12/18 12:06:24;;;;;;;5.03;2.50;;;10.00;99.90;;;;;;5083330;28;20528;-79
2021/12/18 12:08:52;;;;;;;8.07;3.00;;;9.60;99.90;;;;;;5085642;28;20048;-77
2021/12/18 12:11:25;;;;;;;8.02;2.75;;;9.90;99.90;;;;;;5104100;28;20047;-77
2021/12/18 12:14:06;;;;;;;6.70;2.90;;;9.70;99.90;;;;;;5104529;28;20919;-77
2021/12/18 12:16:44;;;;;;;6.13;2.92;;;9.80;99.90;;;;;;5097531;28;20567;-73
2021/12/18 12:19:16;;;;;;;10.35;3.00;;;9.70;99.90;;;;;;5105521;28;20130;-74
2021/12/18 12:21:51;;;;;;;8.38;2.65;;;9.70;99.90;;;;;;5105733;28;20561;-73
2021/12/18 12:24:19;;;;;;;7.65;2.30;;;9.60;99.90;;;;;;5104857;28;20040;-74
2021/12/18 12:26:46;;;;;;;9.10;2.80;;;9.60;99.90;;;;;;5104798;28;20035;-77
2021/12/18 12:29:16;;;;;;;6.47;2.58;;;9.60;99.90;;;;;;5086930;28;20039;-77
2021/12/18 12:32:00;;;;;;;9.93;2.75;;;9.60;99.90;;;;;;5103624;28;20047;-73
2021/12/18 12:34:33;;;;;;;8.73;2.50;;;9.70;99.90;;;;;;5104490;28;20047;-74
2021/12/18 12:37:24;;;;;;;9.65;2.75;;;9.50;99.90;;;;;;5105018;28;20273;-77
2021/12/18 12:39:56;;;;;;;9.18;3.22;;;9.60;99.90;;;;;;5104201;28;20045;-74
2021/12/18 12:42:22;;;;;;;8.68;3.08;;;9.60;99.90;;;;;;5105311;28;20054;-75
2021/12/18 12:45:15;;;;;;;13.18;3.30;;;9.50;99.90;;;;;;5108694;28;20039;-75
2021/12/18 12:47:37;;;;;;;11.85;2.78;;;9.70;99.90;;;;;;5108564;28;20064;-75
2021/12/18 12:50:09;;;;;;;8.23;2.95;;;9.70;99.90;;;;;;5103728;28;20150;-76
2021/12/18 12:53:02;;;;;;;9.75;3.13;;;9.70;99.90;;;;;;5103632;28;20054;-76
2021/12/18 12:55:30;;;;;;;9.60;3.38;;;9.60;99.90;;;;;;5104545;28;20046;-74
2021/12/18 12:58:01;;;;;;;7.75;2.95;;;9.50;99.90;;;;;;5103888;28;20044;-73
2021/12/18 13:00:31;;;;;;;7.55;3.00;;;9.50;99.90;;;;;;5104451;28;20435;-74
2021/12/18 13:03:01;;;;;;;9.38;2.90;;;9.40;99.90;;;;;;5086504;28;20062;-75
2021/12/18 13:05:29;;;;;;;8.15;2.75;;;9.40;99.90;;;;;;5103601;28;20086;-74
2021/12/18 13:07:57;;;;;;;14.57;3.53;;;9.40;99.90;;;;;;5103468;28;20054;-75
2021/12/18 13:10:29;;;;;;;6.35;2.85;;;9.60;99.90;;;;;;5103959;28;20163;-75
2021/12/18 13:12:58;;;;;;;9.57;2.70;;;9.60;99.90;;;;;;5086135;28;20047;-74
2021/12/18 13:15:24;;;;;;;7.32;2.45;;;9.50;99.90;;;;;;5103024;28;20043;-75
2021/12/18 13:18:07;;;;;;;8.05;2.55;;;9.50;99.90;;;;;;5102648;28;20036;-76
2021/12/18 13:20:48;;;;;;;7.88;3.08;;;9.40;99.90;;;;;;5095653;28;20075;-74
2021/12/18 13:23:18;;;;;;;3.45;2.42;;;9.50;99.90;;;;;;5099976;28;20499;-73
2021/12/18 13:25:52;;;;;;;11.23;2.90;;;9.30;99.90;;;;;;5103060;28;20626;-76
2021/12/18 13:28:18;;;;;;;5.45;2.55;;;9.30;99.90;;;;;;5086529;28;20047;-72
2021/12/18 13:30:47;;;;;;;5.50;2.90;;;9.40;99.90;;;;;;5102990;28;20040;-77
2021/12/18 13:33:14;;;;;;;10.18;3.08;;;9.30;99.90;;;;;;5086581;28;20050;-75
2021/12/18 13:35:40;;;;;;;7.45;2.55;;;9.30;99.90;;;;;;5104381;28;20127;-76
2021/12/18 13:38:11;;;;;;;6.90;2.70;;;9.40;99.90;;;;;;5103211;28;20503;-74
2021/12/18 13:40:44;;;;;;;9.15;2.85;;;9.30;99.90;;;;;;5102831;28;20044;-76
2021/12/18 13:43:37;;;;;;;8.07;2.60;;;9.20;99.90;;;;;;5102513;28;20459;-74
2021/12/18 13:46:08;;;;;;;9.05;2.47;;;9.10;99.90;;;;;;5099953;28;20047;-74